sensor_id;sensor_type;location;lat;lon;timestamp;temperature;humidity
64817;DHT22;53289;45.602;11.904;2022-12-29T00:02:23;5.60;79.30
64817;DHT22;53289;45.602;11.904;2022-12-29T00:04:52;5.60;78.40
64817;DHT22;53289;45.602;11.904;2022-12-29T00:07:18;5.50;77.90
64817;DHT22;53289;45.602;11.904;2022-12-29T00:09:44;5.50;77.90
64817;DHT22;53289;45.602;11.904;2022-12-29T00:12:10;5.60;77.70
64817;DHT22;53289;45.602;11.904;2022-12-29T00:14:35;5.60;77.30
64817;DHT22;53289;45.602;11.904;2022-12-29T00:17:19;5.60;77.30
64817;DHT22;53289;45.602;11.904;2022-12-29T00:19:45;5.70;77.30
64817;DHT22;53289;45.602;11.904;2022-12-29T00:22:29;5.70;77.40
64817;DHT22;53289;45.602;11.904;2022-12-29T00:25:14;5.80;77.10
64817;DHT22;53289;45.602;11.904;2022-12-29T00:27:58;5.90;77.10
64817;DHT22;53289;45.602;11.904;2022-12-29T00:30:42;5.90;77.30
64817;DHT22;53289;45.602;11.904;2022-12-29T00:33:31;5.90;77.20
64817;DHT22;53289;45.602;11.904;2022-12-29T00:38:59;5.90;77.50
64817;DHT22;53289;45.602;11.904;2022-12-29T00:41:44;5.90;76.90
64817;DHT22;53289;45.602;11.904;2022-12-29T00:44:28;5.90;77.40
64817;DHT22;53289;45.602;11.904;2022-12-29T00:46:54;6.00;77.60
64817;DHT22;53289;45.602;11.904;2022-12-29T00:49:20;6.00;77.40
64817;DHT22;53289;45.602;11.904;2022-12-29T00:52:06;6.00;77.20
64817;DHT22;53289;45.602;11.904;2022-12-29T00:54:34;6.00;76.90
64817;DHT22;53289;45.602;11.904;2022-12-29T00:57:01;6.00;77.50
64817;DHT22;53289;45.602;11.904;2022-12-29T00:59:27;6.00;77.30
64817;DHT22;53289;45.602;11.904;2022-12-29T01:01:54;6.00;77.00
64817;DHT22;53289;45.602;11.904;2022-12-29T01:04:22;6.10;77.60
64817;DHT22;53289;45.602;11.904;2022-12-29T01:06:49;6.00;78.10
64817;DHT22;53289;45.602;11.904;2022-12-29T01:09:15;6.00;77.80
64817;DHT22;53289;45.602;11.904;2022-12-29T01:11:59;6.00;77.40
64817;DHT22;53289;45.602;11.904;2022-12-29T01:14:26;5.90;77.30
64817;DHT22;53289;45.602;11.904;2022-12-29T01:16:52;5.90;77.60
64817;DHT22;53289;45.602;11.904;2022-12-29T01:19:18;5.90;77.60
64817;DHT22;53289;45.602;11.904;2022-12-29T01:21:45;5.90;78.00
64817;DHT22;53289;45.602;11.904;2022-12-29T01:24:11;5.90;77.70
64817;DHT22;53289;45.602;11.904;2022-12-29T01:26:37;5.90;77.70
64817;DHT22;53289;45.602;11.904;2022-12-29T01:29:03;5.90;77.70
64817;DHT22;53289;45.602;11.904;2022-12-29T01:31:29;5.90;77.70
64817;DHT22;53289;45.602;11.904;2022-12-29T01:33:55;6.00;77.40
64817;DHT22;53289;45.602;11.904;2022-12-29T01:36:20;6.00;77.30
64817;DHT22;53289;45.602;11.904;2022-12-29T01:38:46;6.00;77.30
64817;DHT22;53289;45.602;11.904;2022-12-29T01:41:14;6.00;77.10
64817;DHT22;53289;45.602;11.904;2022-12-29T01:43:45;6.00;77.20
64817;DHT22;53289;45.602;11.904;2022-12-29T01:46:20;6.10;77.20
64817;DHT22;53289;45.602;11.904;2022-12-29T01:49:33;6.00;76.90
64817;DHT22;53289;45.602;11.904;2022-12-29T01:51:53;6.10;76.90
64817;DHT22;53289;45.602;11.904;2022-12-29T01:54:26;6.10;76.80
64817;DHT22;53289;45.602;11.904;2022-12-29T01:56:54;6.20;76.90
64817;DHT22;53289;45.602;11.904;2022-12-29T01:59:25;6.10;77.00
64817;DHT22;53289;45.602;11.904;2022-12-29T02:01:52;6.10;76.90
64817;DHT22;53289;45.602;11.904;2022-12-29T02:04:18;6.10;76.70
64817;DHT22;53289;45.602;11.904;2022-12-29T02:06:54;6.10;77.00
64817;DHT22;53289;45.602;11.904;2022-12-29T02:09:22;6.00;76.80
64817;DHT22;53289;45.602;11.904;2022-12-29T02:11:49;6.00;76.80
64817;DHT22;53289;45.602;11.904;2022-12-29T02:14:15;6.00;77.10
64817;DHT22;53289;45.602;11.904;2022-12-29T02:38:40;5.60;77.80
64817;DHT22;53289;45.602;11.904;2022-12-29T02:41:26;5.60;77.90
64817;DHT22;53289;45.602;11.904;2022-12-29T02:44:05;5.60;77.90
64817;DHT22;53289;45.602;11.904;2022-12-29T02:46:53;5.50;77.90
64817;DHT22;53289;45.602;11.904;2022-12-29T02:49:29;5.50;78.00
64817;DHT22;53289;45.602;11.904;2022-12-29T02:51:59;5.50;78.00
64817;DHT22;53289;45.602;11.904;2022-12-29T02:54:27;5.50;78.20
64817;DHT22;53289;45.602;11.904;2022-12-29T03:02:58;5.50;78.30
64817;DHT22;53289;45.602;11.904;2022-12-29T03:11:15;5.40;78.70
64817;DHT22;53289;45.602;11.904;2022-12-29T03:14:17;5.50;78.60
64817;DHT22;53289;45.602;11.904;2022-12-29T03:17:11;5.60;78.50
64817;DHT22;53289;45.602;11.904;2022-12-29T03:19:46;5.60;78.50
64817;DHT22;53289;45.602;11.904;2022-12-29T03:22:25;5.60;78.50
64817;DHT22;53289;45.602;11.904;2022-12-29T03:24:56;5.60;78.70
64817;DHT22;53289;45.602;11.904;2022-12-29T03:27:31;5.50;78.50
64817;DHT22;53289;45.602;11.904;2022-12-29T03:30:01;5.50;78.70
64817;DHT22;53289;45.602;11.904;2022-12-29T03:32:33;5.50;78.70
64817;DHT22;53289;45.602;11.904;2022-12-29T03:35:00;5.50;78.70
64817;DHT22;53289;45.602;11.904;2022-12-29T03:37:35;5.50;78.80
64817;DHT22;53289;45.602;11.904;2022-12-29T03:40:03;5.50;78.80
64817;DHT22;53289;45.602;11.904;2022-12-29T03:42:32;5.50;78.80
64817;DHT22;53289;45.602;11.904;2022-12-29T03:44:59;5.40;78.70
64817;DHT22;53289;45.602;11.904;2022-12-29T03:47:25;5.50;79.00
64817;DHT22;53289;45.602;11.904;2022-12-29T03:49:51;5.50;79.10
64817;DHT22;53289;45.602;11.904;2022-12-29T03:52:17;5.50;78.70
64817;DHT22;53289;45.602;11.904;2022-12-29T03:54:44;5.50;78.80
64817;DHT22;53289;45.602;11.904;2022-12-29T03:57:11;5.50;79.00
64817;DHT22;53289;45.602;11.904;2022-12-29T03:59:37;5.50;78.80
64817;DHT22;53289;45.602;11.904;2022-12-29T04:02:02;5.50;79.00
64817;DHT22;53289;45.602;11.904;2022-12-29T04:04:28;5.60;79.20
64817;DHT22;53289;45.602;11.904;2022-12-29T04:06:54;5.60;78.80
64817;DHT22;53289;45.602;11.904;2022-12-29T04:09:20;5.70;78.70
64817;DHT22;53289;45.602;11.904;2022-12-29T04:11:46;5.80;78.60
64817;DHT22;53289;45.602;11.904;2022-12-29T04:14:18;5.80;78.40
64817;DHT22;53289;45.602;11.904;2022-12-29T04:16:44;5.90;78.60
64817;DHT22;53289;45.602;11.904;2022-12-29T04:19:10;5.90;78.80
64817;DHT22;53289;45.602;11.904;2022-12-29T04:21:36;5.90;78.70
64817;DHT22;53289;45.602;11.904;2022-12-29T04:24:02;5.90;78.70
64817;DHT22;53289;45.602;11.904;2022-12-29T04:26:28;5.90;78.30
64817;DHT22;53289;45.602;11.904;2022-12-29T04:28:54;6.00;78.50
64817;DHT22;53289;45.602;11.904;2022-12-29T04:31:20;6.00;78.70
64817;DHT22;53289;45.602;11.904;2022-12-29T04:33:46;6.00;78.50
64817;DHT22;53289;45.602;11.904;2022-12-29T04:36:11;6.00;78.50
64817;DHT22;53289;45.602;11.904;2022-12-29T04:38:37;5.90;78.70
64817;DHT22;53289;45.602;11.904;2022-12-29T04:41:04;6.00;78.50
64817;DHT22;53289;45.602;11.904;2022-12-29T04:43:30;6.00;78.50
64817;DHT22;53289;45.602;11.904;2022-12-29T04:45:56;6.00;78.70
64817;DHT22;53289;45.602;11.904;2022-12-29T04:48:22;6.10;78.60
64817;DHT22;53289;45.602;11.904;2022-12-29T04:50:48;6.10;78.70
64817;DHT22;53289;45.602;11.904;2022-12-29T04:53:15;6.10;78.90
64817;DHT22;53289;45.602;11.904;2022-12-29T04:55:41;6.10;79.00
64817;DHT22;53289;45.602;11.904;2022-12-29T04:58:07;6.00;79.00
64817;DHT22;53289;45.602;11.904;2022-12-29T05:00:34;6.00;79.10
64817;DHT22;53289;45.602;11.904;2022-12-29T05:03:00;6.00;79.10
64817;DHT22;53289;45.602;11.904;2022-12-29T05:05:26;6.00;79.10
64817;DHT22;53289;45.602;11.904;2022-12-29T05:07:51;6.00;79.10
64817;DHT22;53289;45.602;11.904;2022-12-29T05:10:17;6.00;79.20
64817;DHT22;53289;45.602;11.904;2022-12-29T05:12:43;6.00;79.10
64817;DHT22;53289;45.602;11.904;2022-12-29T05:15:10;5.90;79.10
64817;DHT22;53289;45.602;11.904;2022-12-29T05:17:37;6.00;79.20
64817;DHT22;53289;45.602;11.904;2022-12-29T05:20:04;5.90;79.20
64817;DHT22;53289;45.602;11.904;2022-12-29T05:22:30;5.90;79.30
64817;DHT22;53289;45.602;11.904;2022-12-29T05:24:56;5.90;79.10
64817;DHT22;53289;45.602;11.904;2022-12-29T05:27:22;5.90;79.00
64817;DHT22;53289;45.602;11.904;2022-12-29T05:29:48;5.90;79.10
64817;DHT22;53289;45.602;11.904;2022-12-29T05:32:14;5.90;79.20
64817;DHT22;53289;45.602;11.904;2022-12-29T05:34:39;5.90;79.30
64817;DHT22;53289;45.602;11.904;2022-12-29T05:37:05;5.80;79.20
64817;DHT22;53289;45.602;11.904;2022-12-29T05:39:31;5.80;79.20
64817;DHT22;53289;45.602;11.904;2022-12-29T05:41:57;5.80;79.20
64817;DHT22;53289;45.602;11.904;2022-12-29T05:44:23;5.70;79.40
64817;DHT22;53289;45.602;11.904;2022-12-29T05:46:49;5.60;79.50
64817;DHT22;53289;45.602;11.904;2022-12-29T05:49:16;5.60;79.60
64817;DHT22;53289;45.602;11.904;2022-12-29T05:51:41;5.60;79.70
64817;DHT22;53289;45.602;11.904;2022-12-29T05:54:07;5.60;79.70
64817;DHT22;53289;45.602;11.904;2022-12-29T05:56:33;5.60;79.80
64817;DHT22;53289;45.602;11.904;2022-12-29T05:58:59;5.60;79.70
64817;DHT22;53289;45.602;11.904;2022-12-29T06:01:25;5.50;79.70
64817;DHT22;53289;45.602;11.904;2022-12-29T06:03:51;5.50;79.70
64817;DHT22;53289;45.602;11.904;2022-12-29T06:06:17;5.50;79.80
64817;DHT22;53289;45.602;11.904;2022-12-29T06:08:43;5.50;79.90
64817;DHT22;53289;45.602;11.904;2022-12-29T06:11:09;5.50;79.90
64817;DHT22;53289;45.602;11.904;2022-12-29T06:13:35;5.50;79.90
64817;DHT22;53289;45.602;11.904;2022-12-29T06:16:01;5.50;80.10
64817;DHT22;53289;45.602;11.904;2022-12-29T06:18:27;5.50;80.30
64817;DHT22;53289;45.602;11.904;2022-12-29T06:20:53;5.60;80.30
64817;DHT22;53289;45.602;11.904;2022-12-29T06:23:19;5.60;80.40
64817;DHT22;53289;45.602;11.904;2022-12-29T06:25:47;5.60;80.40
64817;DHT22;53289;45.602;11.904;2022-12-29T06:28:14;5.70;80.40
64817;DHT22;53289;45.602;11.904;2022-12-29T06:30:40;5.70;80.40
64817;DHT22;53289;45.602;11.904;2022-12-29T06:33:08;5.80;80.40
64817;DHT22;53289;45.602;11.904;2022-12-29T06:35:34;5.80;80.40
64817;DHT22;53289;45.602;11.904;2022-12-29T06:38:00;5.90;80.20
64817;DHT22;53289;45.602;11.904;2022-12-29T06:40:26;5.90;80.30
64817;DHT22;53289;45.602;11.904;2022-12-29T06:42:51;5.90;80.50
64817;DHT22;53289;45.602;11.904;2022-12-29T06:45:17;5.90;80.20
64817;DHT22;53289;45.602;11.904;2022-12-29T06:47:43;5.90;80.20
64817;DHT22;53289;45.602;11.904;2022-12-29T06:50:09;5.90;80.20
64817;DHT22;53289;45.602;11.904;2022-12-29T06:52:35;5.90;80.30
64817;DHT22;53289;45.602;11.904;2022-12-29T06:55:01;5.90;80.40
64817;DHT22;53289;45.602;11.904;2022-12-29T06:57:27;5.90;80.40
64817;DHT22;53289;45.602;11.904;2022-12-29T06:59:53;6.00;80.30
64817;DHT22;53289;45.602;11.904;2022-12-29T07:02:22;6.00;80.30
64817;DHT22;53289;45.602;11.904;2022-12-29T07:04:48;6.00;80.20
64817;DHT22;53289;45.602;11.904;2022-12-29T07:07:13;6.00;79.90
64817;DHT22;53289;45.602;11.904;2022-12-29T07:09:39;5.90;79.80
64817;DHT22;53289;45.602;11.904;2022-12-29T07:12:05;5.80;79.80
64817;DHT22;53289;45.602;11.904;2022-12-29T07:14:31;5.80;80.00
64817;DHT22;53289;45.602;11.904;2022-12-29T07:16:57;5.80;80.00
64817;DHT22;53289;45.602;11.904;2022-12-29T07:19:23;5.70;80.10
64817;DHT22;53289;45.602;11.904;2022-12-29T07:21:49;5.80;80.30
64817;DHT22;53289;45.602;11.904;2022-12-29T07:24:15;5.80;80.20
64817;DHT22;53289;45.602;11.904;2022-12-29T07:26:41;5.90;80.20
64817;DHT22;53289;45.602;11.904;2022-12-29T07:29:07;5.90;79.90
64817;DHT22;53289;45.602;11.904;2022-12-29T07:31:33;6.00;79.80
64817;DHT22;53289;45.602;11.904;2022-12-29T07:33:59;6.10;79.70
64817;DHT22;53289;45.602;11.904;2022-12-29T07:36:25;6.20;79.70
64817;DHT22;53289;45.602;11.904;2022-12-29T07:38:51;6.20;79.90
64817;DHT22;53289;45.602;11.904;2022-12-29T07:41:16;6.20;79.60
64817;DHT22;53289;45.602;11.904;2022-12-29T07:43:42;6.30;79.40
64817;DHT22;53289;45.602;11.904;2022-12-29T07:46:12;6.30;79.80
64817;DHT22;53289;45.602;11.904;2022-12-29T07:48:38;6.40;79.90
64817;DHT22;53289;45.602;11.904;2022-12-29T07:51:04;6.50;79.80
64817;DHT22;53289;45.602;11.904;2022-12-29T07:53:30;6.50;79.90
64817;DHT22;53289;45.602;11.904;2022-12-29T07:55:56;6.60;79.70
64817;DHT22;53289;45.602;11.904;2022-12-29T07:58:22;6.70;79.20
64817;DHT22;53289;45.602;11.904;2022-12-29T08:00:52;6.80;79.60
64817;DHT22;53289;45.602;11.904;2022-12-29T08:03:18;6.70;79.40
64817;DHT22;53289;45.602;11.904;2022-12-29T08:05:43;6.70;79.40
64817;DHT22;53289;45.602;11.904;2022-12-29T08:08:09;6.70;79.30
64817;DHT22;53289;45.602;11.904;2022-12-29T08:10:35;6.70;79.30
64817;DHT22;53289;45.602;11.904;2022-12-29T08:13:01;6.80;79.10
64817;DHT22;53289;45.602;11.904;2022-12-29T08:15:30;6.90;78.90
64817;DHT22;53289;45.602;11.904;2022-12-29T08:17:56;7.00;78.90
64817;DHT22;53289;45.602;11.904;2022-12-29T08:20:22;7.10;78.90
64817;DHT22;53289;45.602;11.904;2022-12-29T08:22:48;7.20;78.90
64817;DHT22;53289;45.602;11.904;2022-12-29T08:25:13;7.20;78.90
64817;DHT22;53289;45.602;11.904;2022-12-29T08:27:39;7.30;78.90
64817;DHT22;53289;45.602;11.904;2022-12-29T08:30:06;7.40;78.70
64817;DHT22;53289;45.602;11.904;2022-12-29T08:32:32;7.40;78.80
64817;DHT22;53289;45.602;11.904;2022-12-29T08:34:58;7.40;78.60
64817;DHT22;53289;45.602;11.904;2022-12-29T08:37:23;7.40;78.70
64817;DHT22;53289;45.602;11.904;2022-12-29T08:39:50;7.50;78.60
64817;DHT22;53289;45.602;11.904;2022-12-29T08:42:16;7.50;78.80
64817;DHT22;53289;45.602;11.904;2022-12-29T08:44:41;7.50;78.60
64817;DHT22;53289;45.602;11.904;2022-12-29T08:47:10;7.60;78.60
64817;DHT22;53289;45.602;11.904;2022-12-29T08:49:36;7.70;78.50
64817;DHT22;53289;45.602;11.904;2022-12-29T08:52:02;7.70;78.60
64817;DHT22;53289;45.602;11.904;2022-12-29T08:54:28;7.80;78.40
64817;DHT22;53289;45.602;11.904;2022-12-29T08:56:54;7.90;78.20
64817;DHT22;53289;45.602;11.904;2022-12-29T08:59:20;7.90;78.40
64817;DHT22;53289;45.602;11.904;2022-12-29T09:01:46;8.00;78.20
64817;DHT22;53289;45.602;11.904;2022-12-29T09:04:12;8.10;78.20
64817;DHT22;53289;45.602;11.904;2022-12-29T09:06:38;8.20;78.20
64817;DHT22;53289;45.602;11.904;2022-12-29T09:09:03;8.20;78.10
64817;DHT22;53289;45.602;11.904;2022-12-29T09:11:29;8.30;78.00
64817;DHT22;53289;45.602;11.904;2022-12-29T09:13:55;8.30;78.00
64817;DHT22;53289;45.602;11.904;2022-12-29T09:16:23;8.40;77.70
64817;DHT22;53289;45.602;11.904;2022-12-29T09:18:49;8.40;77.60
64817;DHT22;53289;45.602;11.904;2022-12-29T09:21:15;8.50;77.60
64817;DHT22;53289;45.602;11.904;2022-12-29T09:23:41;8.50;77.40
64817;DHT22;53289;45.602;11.904;2022-12-29T09:26:07;8.60;77.50
64817;DHT22;53289;45.602;11.904;2022-12-29T09:28:34;8.70;77.50
64817;DHT22;53289;45.602;11.904;2022-12-29T09:31:00;8.90;77.10
64817;DHT22;53289;45.602;11.904;2022-12-29T09:33:27;9.00;77.10
64817;DHT22;53289;45.602;11.904;2022-12-29T09:35:58;9.20;76.90
64817;DHT22;53289;45.602;11.904;2022-12-29T09:38:25;9.30;76.30
64817;DHT22;53289;45.602;11.904;2022-12-29T09:40:58;9.40;76.30
64817;DHT22;53289;45.602;11.904;2022-12-29T09:51:31;9.60;75.60
64817;DHT22;53289;45.602;11.904;2022-12-29T09:54:51;9.80;75.60
64817;DHT22;53289;45.602;11.904;2022-12-29T09:56:51;9.90;75.40
64817;DHT22;53289;45.602;11.904;2022-12-29T09:59:41;10.00;75.00
64817;DHT22;53289;45.602;11.904;2022-12-29T10:02:38;10.20;75.00
64817;DHT22;53289;45.602;11.904;2022-12-29T10:08:20;10.30;73.30
64817;DHT22;53289;45.602;11.904;2022-12-29T10:11:04;10.20;73.40
64817;DHT22;53289;45.602;11.904;2022-12-29T10:16:29;10.20;73.70
64817;DHT22;53289;45.602;11.904;2022-12-29T10:22:09;10.30;73.00
64817;DHT22;53289;45.602;11.904;2022-12-29T10:24:38;10.30;73.10
64817;DHT22;53289;45.602;11.904;2022-12-29T10:27:12;10.30;73.10
64817;DHT22;53289;45.602;11.904;2022-12-29T10:29:50;10.30;73.20
64817;DHT22;53289;45.602;11.904;2022-12-29T10:32:26;10.40;73.20
64817;DHT22;53289;45.602;11.904;2022-12-29T10:34:57;10.40;73.40
64817;DHT22;53289;45.602;11.904;2022-12-29T10:37:48;10.40;73.30
64817;DHT22;53289;45.602;11.904;2022-12-29T10:42:57;10.50;73.00
64817;DHT22;53289;45.602;11.904;2022-12-29T10:45:28;10.50;72.90
64817;DHT22;53289;45.602;11.904;2022-12-29T10:48:09;10.50;73.00
64817;DHT22;53289;45.602;11.904;2022-12-29T10:50:37;10.50;72.70
64817;DHT22;53289;45.602;11.904;2022-12-29T10:53:15;10.50;72.90
64817;DHT22;53289;45.602;11.904;2022-12-29T10:55:43;10.60;72.40
64817;DHT22;53289;45.602;11.904;2022-12-29T10:58:12;10.70;72.80
64817;DHT22;53289;45.602;11.904;2022-12-29T11:00:39;10.70;72.80
64817;DHT22;53289;45.602;11.904;2022-12-29T11:03:30;10.80;72.10
64817;DHT22;53289;45.602;11.904;2022-12-29T11:06:26;10.90;72.30
64817;DHT22;53289;45.602;11.904;2022-12-29T11:09:07;11.10;71.70
64817;DHT22;53289;45.602;11.904;2022-12-29T11:11:36;11.20;71.90
64817;DHT22;53289;45.602;11.904;2022-12-29T11:14:31;11.20;70.70
64817;DHT22;53289;45.602;11.904;2022-12-29T11:16:59;11.30;70.30
64817;DHT22;53289;45.602;11.904;2022-12-29T11:19:28;11.30;70.40
64817;DHT22;53289;45.602;11.904;2022-12-29T11:24:44;11.30;70.70
64817;DHT22;53289;45.602;11.904;2022-12-29T11:27:21;11.40;70.80
64817;DHT22;53289;45.602;11.904;2022-12-29T11:29:50;11.40;70.30
64817;DHT22;53289;45.602;11.904;2022-12-29T11:32:24;11.50;69.00
64817;DHT22;53289;45.602;11.904;2022-12-29T11:34:51;11.60;70.00
64817;DHT22;53289;45.602;11.904;2022-12-29T11:37:37;11.70;70.20
64817;DHT22;53289;45.602;11.904;2022-12-29T11:45:23;12.00;69.70
64817;DHT22;53289;45.602;11.904;2022-12-29T11:47:52;12.20;68.00
64817;DHT22;53289;45.602;11.904;2022-12-29T11:50:24;12.30;69.00
64817;DHT22;53289;45.602;11.904;2022-12-29T11:52:58;12.40;68.10
64817;DHT22;53289;45.602;11.904;2022-12-29T11:55:26;12.40;67.80
64817;DHT22;53289;45.602;11.904;2022-12-29T11:57:55;12.40;68.60
64817;DHT22;53289;45.602;11.904;2022-12-29T12:00:24;12.40;68.10
64817;DHT22;53289;45.602;11.904;2022-12-29T12:11:15;12.80;67.00
64817;DHT22;53289;45.602;11.904;2022-12-29T12:19:25;12.80;66.00
64817;DHT22;53289;45.602;11.904;2022-12-29T12:22:10;12.80;65.60
64817;DHT22;53289;45.602;11.904;2022-12-29T12:24:54;12.80;66.50
64817;DHT22;53289;45.602;11.904;2022-12-29T12:27:26;12.90;66.50
64817;DHT22;53289;45.602;11.904;2022-12-29T12:38:52;12.90;65.90
64817;DHT22;53289;45.602;11.904;2022-12-29T12:41:43;12.90;66.50
64817;DHT22;53289;45.602;11.904;2022-12-29T12:49:40;12.80;65.50
64817;DHT22;53289;45.602;11.904;2022-12-29T13:00:24;12.60;67.10
64817;DHT22;53289;45.602;11.904;2022-12-29T13:03:03;12.60;67.00
64817;DHT22;53289;45.602;11.904;2022-12-29T13:10:59;12.60;66.80
64817;DHT22;53289;45.602;11.904;2022-12-29T13:32:47;11.80;68.30
64817;DHT22;53289;45.602;11.904;2022-12-29T13:38:25;11.70;68.60
64817;DHT22;53289;45.602;11.904;2022-12-29T13:40:58;11.60;68.70
64817;DHT22;53289;45.602;11.904;2022-12-29T13:43:27;11.60;68.80
64817;DHT22;53289;45.602;11.904;2022-12-29T13:46:01;11.60;68.80
64817;DHT22;53289;45.602;11.904;2022-12-29T13:48:53;11.50;68.90
64817;DHT22;53289;45.602;11.904;2022-12-29T13:51:21;11.50;69.10
64817;DHT22;53289;45.602;11.904;2022-12-29T13:57:08;11.50;69.20
64817;DHT22;53289;45.602;11.904;2022-12-29T13:59:51;11.50;69.30
64817;DHT22;53289;45.602;11.904;2022-12-29T14:03:10;11.40;69.30
64817;DHT22;53289;45.602;11.904;2022-12-29T14:08:00;11.40;69.70
64817;DHT22;53289;45.602;11.904;2022-12-29T14:10:37;11.40;69.70
64817;DHT22;53289;45.602;11.904;2022-12-29T14:13:15;11.40;69.80
64817;DHT22;53289;45.602;11.904;2022-12-29T14:15:44;11.40;69.90
64817;DHT22;53289;45.602;11.904;2022-12-29T14:18:18;11.40;69.80
64817;DHT22;53289;45.602;11.904;2022-12-29T14:23:46;11.40;69.70
64817;DHT22;53289;45.602;11.904;2022-12-29T14:28:56;11.30;69.90
64817;DHT22;53289;45.602;11.904;2022-12-29T14:31:40;11.20;70.00
64817;DHT22;53289;45.602;11.904;2022-12-29T14:36:41;11.10;70.40
64817;DHT22;53289;45.602;11.904;2022-12-29T14:44:48;11.10;70.50
64817;DHT22;53289;45.602;11.904;2022-12-29T14:49:56;11.10;70.50
64817;DHT22;53289;45.602;11.904;2022-12-29T14:52:25;11.10;70.50
64817;DHT22;53289;45.602;11.904;2022-12-29T14:57:51;11.20;70.40
64817;DHT22;53289;45.602;11.904;2022-12-29T15:03:02;11.30;69.90
64817;DHT22;53289;45.602;11.904;2022-12-29T15:08:11;11.30;69.70
64817;DHT22;53289;45.602;11.904;2022-12-29T15:10:45;11.30;69.70
64817;DHT22;53289;45.602;11.904;2022-12-29T15:13:21;11.30;69.60
64817;DHT22;53289;45.602;11.904;2022-12-29T15:15:48;11.30;69.70
64817;DHT22;53289;45.602;11.904;2022-12-29T15:18:25;11.20;69.80
64817;DHT22;53289;45.602;11.904;2022-12-29T15:20:57;11.20;70.00
64817;DHT22;53289;45.602;11.904;2022-12-29T15:23:25;11.10;70.20
64817;DHT22;53289;45.602;11.904;2022-12-29T15:28:25;10.90;70.60
64817;DHT22;53289;45.602;11.904;2022-12-29T15:30:56;10.90;70.70
64817;DHT22;53289;45.602;11.904;2022-12-29T15:33:26;10.90;70.90
64817;DHT22;53289;45.602;11.904;2022-12-29T15:35:55;10.90;71.00
64817;DHT22;53289;45.602;11.904;2022-12-29T15:38:23;10.90;71.10
64817;DHT22;53289;45.602;11.904;2022-12-29T15:40:56;10.80;71.10
64817;DHT22;53289;45.602;11.904;2022-12-29T15:43:49;10.80;71.20
64817;DHT22;53289;45.602;11.904;2022-12-29T15:46:16;10.80;71.30
64817;DHT22;53289;45.602;11.904;2022-12-29T15:48:43;10.80;71.30
64817;DHT22;53289;45.602;11.904;2022-12-29T15:51:33;10.80;71.40
64817;DHT22;53289;45.602;11.904;2022-12-29T15:53:59;10.70;71.60
64817;DHT22;53289;45.602;11.904;2022-12-29T15:56:29;10.70;71.60
64817;DHT22;53289;45.602;11.904;2022-12-29T15:58:56;10.60;71.70
64817;DHT22;53289;45.602;11.904;2022-12-29T16:01:30;10.50;71.90
64817;DHT22;53289;45.602;11.904;2022-12-29T16:03:58;10.40;72.00
64817;DHT22;53289;45.602;11.904;2022-12-29T16:06:38;10.40;72.30
64817;DHT22;53289;45.602;11.904;2022-12-29T16:09:41;10.30;72.50
64817;DHT22;53289;45.602;11.904;2022-12-29T16:12:16;10.30;72.70
64817;DHT22;53289;45.602;11.904;2022-12-29T16:14:46;10.30;72.90
64817;DHT22;53289;45.602;11.904;2022-12-29T16:17:16;10.30;72.90
64817;DHT22;53289;45.602;11.904;2022-12-29T16:24:49;10.30;73.10
64817;DHT22;53289;45.602;11.904;2022-12-29T16:27:31;10.30;73.10
64817;DHT22;53289;45.602;11.904;2022-12-29T16:29:57;10.30;73.10
64817;DHT22;53289;45.602;11.904;2022-12-29T16:32:27;10.30;73.20
64817;DHT22;53289;45.602;11.904;2022-12-29T16:35:22;10.30;73.20
64817;DHT22;53289;45.602;11.904;2022-12-29T16:40:39;10.20;73.30
64817;DHT22;53289;45.602;11.904;2022-12-29T16:50:41;10.10;73.70
64817;DHT22;53289;45.602;11.904;2022-12-29T16:53:29;10.10;73.70
64817;DHT22;53289;45.602;11.904;2022-12-29T16:56:02;10.10;73.80
64817;DHT22;53289;45.602;11.904;2022-12-29T16:58:29;10.10;73.90
64817;DHT22;53289;45.602;11.904;2022-12-29T17:00:59;10.10;74.00
64817;DHT22;53289;45.602;11.904;2022-12-29T17:03:37;10.10;74.00
64817;DHT22;53289;45.602;11.904;2022-12-29T17:06:04;10.10;74.10
64817;DHT22;53289;45.602;11.904;2022-12-29T17:08:40;10.10;74.10
64817;DHT22;53289;45.602;11.904;2022-12-29T17:19:37;10.00;74.30
64817;DHT22;53289;45.602;11.904;2022-12-29T17:22:14;10.00;74.50
64817;DHT22;53289;45.602;11.904;2022-12-29T17:24:40;9.90;74.60
64817;DHT22;53289;45.602;11.904;2022-12-29T17:27:06;9.90;74.60
64817;DHT22;53289;45.602;11.904;2022-12-29T17:29:39;9.90;74.60
64817;DHT22;53289;45.602;11.904;2022-12-29T17:32:11;9.70;74.80
64817;DHT22;53289;45.602;11.904;2022-12-29T17:34:38;9.60;75.00
64817;DHT22;53289;45.602;11.904;2022-12-29T17:39:50;9.40;75.60
64817;DHT22;53289;45.602;11.904;2022-12-29T17:42:18;9.40;75.80
64817;DHT22;53289;45.602;11.904;2022-12-29T17:44:44;9.40;75.80
64817;DHT22;53289;45.602;11.904;2022-12-29T17:47:11;9.40;75.90
64817;DHT22;53289;45.602;11.904;2022-12-29T17:49:37;9.40;76.10
64817;DHT22;53289;45.602;11.904;2022-12-29T17:52:03;9.40;76.10
64817;DHT22;53289;45.602;11.904;2022-12-29T17:54:30;9.40;76.30
64817;DHT22;53289;45.602;11.904;2022-12-29T17:56:57;9.40;76.50
64817;DHT22;53289;45.602;11.904;2022-12-29T17:59:22;9.40;76.60
64817;DHT22;53289;45.602;11.904;2022-12-29T18:01:48;9.40;76.60
64817;DHT22;53289;45.602;11.904;2022-12-29T18:04:18;9.40;76.60
64817;DHT22;53289;45.602;11.904;2022-12-29T18:06:45;9.40;76.50
64817;DHT22;53289;45.602;11.904;2022-12-29T18:09:14;9.40;76.80
64817;DHT22;53289;45.602;11.904;2022-12-29T18:11:43;9.40;76.70
64817;DHT22;53289;45.602;11.904;2022-12-29T18:14:14;9.40;76.70
64817;DHT22;53289;45.602;11.904;2022-12-29T18:16:41;9.40;76.50
64817;DHT22;53289;45.602;11.904;2022-12-29T18:19:07;9.40;76.70
64817;DHT22;53289;45.602;11.904;2022-12-29T18:21:35;9.40;76.50
64817;DHT22;53289;45.602;11.904;2022-12-29T18:24:01;9.40;76.50
64817;DHT22;53289;45.602;11.904;2022-12-29T18:26:28;9.30;76.60
64817;DHT22;53289;45.602;11.904;2022-12-29T18:28:58;9.20;76.70
64817;DHT22;53289;45.602;11.904;2022-12-29T18:31:32;9.10;77.00
64817;DHT22;53289;45.602;11.904;2022-12-29T18:34:00;9.00;77.10
64817;DHT22;53289;45.602;11.904;2022-12-29T18:36:27;8.90;77.40
64817;DHT22;53289;45.602;11.904;2022-12-29T18:38:54;8.90;77.60
64817;DHT22;53289;45.602;11.904;2022-12-29T18:41:26;8.80;77.70
64817;DHT22;53289;45.602;11.904;2022-12-29T18:43:54;8.80;77.70
64817;DHT22;53289;45.602;11.904;2022-12-29T18:46:20;8.70;77.90
64817;DHT22;53289;45.602;11.904;2022-12-29T18:48:46;8.70;78.10
64817;DHT22;53289;45.602;11.904;2022-12-29T18:51:20;8.60;78.20
64817;DHT22;53289;45.602;11.904;2022-12-29T18:53:46;8.60;78.30